Sloman Herakles — V2FY4 — position and weather

sailwx.info

Track history (hours):
 
Tides and Currents Weather Stations Pressure Air Temp Water Temp Dewpoint Dewpoint Depression Visibility Wind Speed Wind Dir Waves Ship Positions

Sloman Herakles

Last reported at 2014-Dec-18 12:08 UTC. Time now 2014-Dec-23 00:46 UTC.
Position N 29°58' W 090°17'.

Length 145 m; draft 6 m.

Type: Ship (hazmat cat C). MMSI: 305851000.

Date/timePositionNaut miles runAvg speedWind from/ knotsBaromVisibWave heightAir tempDewpointWater temp
2014-Dec-18 12:08N 29°58' W 090°17'0 0.0
2014-Dec-18 11:32N 29°58' W 090°17'  
2014-Dec-16 04:06N 29°55' W 090°08'5 8.2
2014-Dec-16 03:32N 29°57' W 090°03'  
2014-Dec-13 08:33N 29°21' W 094°46'0 0.0
2014-Dec-13 04:27N 29°21' W 094°46'0 0.0
2014-Dec-13 01:18N 29°21' W 094°46'0 0.0
2014-Dec-12 14:33N 29°21' W 094°46'0 0.0
2014-Dec-12 13:09N 29°21' W 094°46'1 0.9
2014-Dec-12 12:33N 29°21' W 094°45'10 0.3
2014-Dec-11 00:23N 29°21' W 094°34'0 0.0
2014-Dec-10 23:23N 29°21' W 094°34'0 0.0
2014-Dec-10 22:29N 29°21' W 094°34'0 0.0
2014-Dec-10 12:17N 29°21' W 094°34'0 0.0
2014-Dec-10 11:32N 29°21' W 094°34'0 0.0
2014-Dec-10 10:23N 29°21' W 094°34'0 0.0
2014-Dec-10 08:29N 29°21' W 094°34'  
Track history (hours):
 
Tides and Currents Weather Stations Pressure Air Temp Water Temp Dewpoint Dewpoint Depression Visibility Wind Speed Wind Dir Waves Ship Positions

Sloman Herakles

Last reported at 2014-Dec-18 12:08 UTC. Time now 2014-Dec-23 00:46 UTC.
Position N 29°58' W 090°17'.

Length 145 m; draft 6 m.

Type: Ship (hazmat cat C). MMSI: 305851000.

Date/timePositionNaut miles runAvg speedWind from/ knotsBaromVisibWave heightAir tempDewpointWater temp
2014-Dec-18 12:08N 29°58' W 090°17'0 0.0
2014-Dec-18 11:32N 29°58' W 090°17'  
2014-Dec-16 04:06N 29°55' W 090°08'5 8.2
2014-Dec-16 03:32N 29°57' W 090°03'  
2014-Dec-13 08:33N 29°21' W 094°46'0 0.0
2014-Dec-13 04:27N 29°21' W 094°46'0 0.0
2014-Dec-13 01:18N 29°21' W 094°46'0 0.0
2014-Dec-12 14:33N 29°21' W 094°46'0 0.0
2014-Dec-12 13:09N 29°21' W 094°46'1 0.9
2014-Dec-12 12:33N 29°21' W 094°45'10 0.3
2014-Dec-11 00:23N 29°21' W 094°34'0 0.0
2014-Dec-10 23:23N 29°21' W 094°34'0 0.0
2014-Dec-10 22:29N 29°21' W 094°34'0 0.0
2014-Dec-10 12:17N 29°21' W 094°34'0 0.0
2014-Dec-10 11:32N 29°21' W 094°34'0 0.0
2014-Dec-10 10:23N 29°21' W 094°34'0 0.0
2014-Dec-10 08:29N 29°21' W 094°34'  

Dump ship's entire track history